Time;durP1;ratioP1;P1;durP2;ratioP2;P2;SDS_P1;SDS_P2;PMS_P1;PMS_P2;Temp;Humidity;BMP_temperature;BMP_pressure;BME280_temperature;BME280_humidity;BME280_pressure;Samples;Min_cycle;Max_cycle;Signal;HPM_P1;HPM_P2
2021/11/29 00:01:28;;;;;;;14.82;10.45;;;11.20;63.20;;;;;;4875652;29;20060;-86
2021/11/29 00:03:54;;;;;;;15.40;10.25;;;11.20;63.20;;;;;;4870402;29;20124;-89
2021/11/29 00:06:20;;;;;;;12.98;9.27;;;11.20;63.10;;;;;;4872211;29;20124;-90
2021/11/29 00:08:47;;;;;;;13.93;10.68;;;11.20;63.10;;;;;;4872146;29;20544;-88
2021/11/29 00:11:14;;;;;;;12.95;9.82;;;11.20;63.10;;;;;;4874109;29;20122;-88
2021/11/29 00:13:40;;;;;;;13.35;9.48;;;11.20;63.10;;;;;;4880705;29;20124;-88
2021/11/29 00:16:07;;;;;;;13.00;9.27;;;11.20;63.10;;;;;;4878086;29;20047;-89
2021/11/29 00:18:33;;;;;;;12.63;9.55;;;11.20;63.10;;;;;;4875824;29;20095;-86
2021/11/29 00:21:00;;;;;;;12.93;9.73;;;11.10;63.00;;;;;;4875134;29;20032;-87
2021/11/29 00:23:26;;;;;;;14.00;9.50;;;11.20;63.20;;;;;;4882687;29;20041;-87
2021/11/29 00:25:53;;;;;;;13.07;9.70;;;11.20;63.10;;;;;;4881456;29;20490;-88
2021/11/29 00:28:19;;;;;;;17.85;9.90;;;11.20;63.10;;;;;;4880478;29;20527;-89
2021/11/29 00:30:46;;;;;;;14.93;9.38;;;11.10;63.10;;;;;;4884754;29;20527;-87
2021/11/29 00:33:12;;;;;;;13.68;9.85;;;11.20;63.20;;;;;;4880854;29;20420;-87
2021/11/29 00:35:39;;;;;;;12.38;10.05;;;11.10;63.10;;;;;;4879929;29;20044;-87
2021/11/29 00:38:06;;;;;;;16.00;10.02;;;11.20;63.20;;;;;;4880649;29;20112;-87
2021/11/29 00:40:33;;;;;;;12.68;9.63;;;11.10;63.10;;;;;;4881909;29;20040;-86
2021/11/29 00:42:59;;;;;;;13.77;9.45;;;11.20;63.20;;;;;;4885590;29;20060;-88
2021/11/29 00:45:25;;;;;;;13.00;10.25;;;11.10;63.10;;;;;;4899034;29;20133;-86
2021/11/29 00:47:51;;;;;;;12.38;9.93;;;11.10;63.20;;;;;;4896800;29;20041;-86
2021/11/29 00:50:19;;;;;;;13.50;10.32;;;11.10;63.20;;;;;;4894549;29;20040;-86
2021/11/29 00:52:45;;;;;;;15.43;11.30;;;11.10;63.20;;;;;;4880209;29;20024;-87
2021/11/29 00:55:13;;;;;;;15.77;10.60;;;11.10;63.20;;;;;;4879458;29;20495;-87
2021/11/29 00:57:39;;;;;;;16.55;11.43;;;11.20;63.20;;;;;;4878219;29;20032;-88
2021/11/29 01:00:09;;;;;;;14.70;11.27;;;11.10;63.10;;;;;;4896693;29;20037;-88
2021/11/29 01:02:35;;;;;;;14.25;10.90;;;11.10;63.20;;;;;;4877589;29;20040;-88
2021/11/29 01:05:01;;;;;;;15.38;11.10;;;11.10;63.20;;;;;;4879109;29;20033;-88
2021/11/29 01:07:27;;;;;;;15.27;10.93;;;11.10;63.10;;;;;;4875428;29;20033;-90
2021/11/29 01:09:53;;;;;;;16.23;11.45;;;11.10;63.10;;;;;;4875734;29;20040;-90
2021/11/29 01:12:19;;;;;;;15.07;11.10;;;11.10;63.20;;;;;;4874857;29;20025;-91
2021/11/29 01:14:45;;;;;;;14.98;10.98;;;11.10;63.30;;;;;;4874015;29;20212;-91
2021/11/29 01:17:11;;;;;;;15.30;11.07;;;11.10;63.30;;;;;;4888562;29;20037;-88
2021/11/29 01:19:38;;;;;;;15.25;11.43;;;11.10;63.10;;;;;;4874415;29;20040;-89
2021/11/29 01:22:05;;;;;;;13.48;10.13;;;11.10;63.20;;;;;;4875342;29;20065;-91
2021/11/29 01:24:32;;;;;;;14.27;10.27;;;11.10;63.20;;;;;;4876747;29;20097;-89
2021/11/29 01:26:58;;;;;;;15.85;11.02;;;11.10;63.20;;;;;;4872979;29;20136;-89
2021/11/29 01:29:24;;;;;;;14.82;11.73;;;11.10;63.20;;;;;;4873760;29;20388;-91
2021/11/29 01:31:50;;;;;;;17.35;12.25;;;11.10;63.20;;;;;;4878820;29;20048;-90
2021/11/29 01:34:16;;;;;;;14.52;10.82;;;11.10;63.30;;;;;;4861361;29;20028;-90
2021/11/29 01:36:42;;;;;;;14.75;10.80;;;11.10;63.30;;;;;;4873157;29;20036;-89
2021/11/29 01:39:09;;;;;;;13.00;10.68;;;11.10;63.30;;;;;;4875227;29;20084;-90
2021/11/29 01:41:35;;;;;;;13.25;10.02;;;11.10;63.20;;;;;;4890323;29;20037;-89
2021/11/29 01:44:01;;;;;;;14.80;10.52;;;11.10;63.10;;;;;;4877888;29;20040;-87
2021/11/29 01:46:27;;;;;;;17.17;11.82;;;11.10;63.30;;;;;;4876258;29;20057;-88
2021/11/29 01:48:53;;;;;;;16.40;11.45;;;11.10;63.30;;;;;;4872339;29;20041;-89
2021/11/29 01:51:19;;;;;;;16.80;11.50;;;11.10;63.30;;;;;;4874521;29;20029;-90
2021/11/29 01:53:45;;;;;;;14.93;11.35;;;11.10;63.40;;;;;;4874812;29;20092;-86
2021/11/29 01:56:11;;;;;;;17.30;11.90;;;11.10;63.40;;;;;;4873824;29;20608;-87
2021/11/29 01:58:40;;;;;;;17.98;12.25;;;11.10;63.40;;;;;;4887403;29;20037;-89
2021/11/29 02:01:14;;;;;;;15.68;11.73;;;11.10;63.50;;;;;;4891773;29;20060;-86
2021/11/29 02:03:42;;;;;;;17.33;12.43;;;11.10;63.40;;;;;;4899197;29;20032;-89
2021/11/29 02:06:09;;;;;;;15.20;12.13;;;11.10;63.50;;;;;;4873196;29;20064;-87
2021/11/29 02:08:36;;;;;;;17.88;12.30;;;11.10;63.40;;;;;;4889489;29;20044;-88
2021/11/29 02:11:01;;;;;;;19.83;12.55;;;11.10;63.60;;;;;;4888258;29;20028;-88
2021/11/29 02:13:28;;;;;;;17.30;12.60;;;11.10;63.60;;;;;;4884503;29;20036;-87
2021/11/29 02:15:54;;;;;;;17.25;12.27;;;11.10;63.70;;;;;;4871700;29;20036;-88
2021/11/29 02:18:34;;;;;;;19.25;13.88;;;11.10;63.70;;;;;;4876693;29;20037;-88
2021/11/29 02:21:06;;;;;;;18.48;14.07;;;11.10;63.80;;;;;;4872271;29;20060;-89
2021/11/29 02:23:38;;;;;;;20.40;14.45;;;11.10;63.80;;;;;;4890829;29;20496;-89
2021/11/29 02:26:05;;;;;;;19.02;13.18;;;11.10;64.00;;;;;;4877918;29;20036;-88
2021/11/29 02:28:32;;;;;;;21.23;13.65;;;11.10;63.80;;;;;;4870310;29;20040;-90
2021/11/29 02:30:58;;;;;;;21.38;13.73;;;11.10;64.00;;;;;;4873415;29;20063;-88
2021/11/29 02:33:27;;;;;;;21.52;14.60;;;11.00;63.90;;;;;;4871600;29;20044;-90
2021/11/29 02:35:52;;;;;;;21.52;14.63;;;11.10;64.10;;;;;;4887509;29;20033;-90
2021/11/29 02:38:18;;;;;;;22.75;14.10;;;11.10;64.20;;;;;;4872465;29;20044;-91
2021/11/29 02:40:44;;;;;;;19.20;13.82;;;11.10;64.10;;;;;;4871434;29;20036;-89
2021/11/29 02:43:11;;;;;;;24.38;14.27;;;11.10;64.10;;;;;;4875745;29;20039;-87
2021/11/29 02:45:37;;;;;;;19.30;14.07;;;11.00;64.10;;;;;;4875604;29;20033;-87
2021/11/29 02:48:03;;;;;;;23.60;14.35;;;11.00;64.20;;;;;;4860650;29;20036;-84
2021/11/29 02:50:34;;;;;;;20.27;13.90;;;11.00;64.10;;;;;;4857828;29;20056;-85
2021/11/29 02:53:00;;;;;;;18.30;13.40;;;11.10;64.30;;;;;;4873398;29;20025;-85
2021/11/29 02:55:26;;;;;;;21.63;14.10;;;11.00;64.30;;;;;;4874938;29;20024;-84
2021/11/29 02:57:52;;;;;;;18.33;13.10;;;11.10;64.40;;;;;;4876903;29;20036;-85
2021/11/29 03:00:18;;;;;;;21.02;13.77;;;11.00;64.30;;;;;;4871857;29;20032;-83
2021/11/29 03:02:44;;;;;;;19.15;12.95;;;11.00;64.30;;;;;;4888269;29;20120;-86
2021/11/29 03:05:10;;;;;;;21.80;14.05;;;11.00;64.60;;;;;;4887781;29;20059;-84
2021/11/29 03:07:36;;;;;;;20.75;13.70;;;11.00;64.60;;;;;;4875712;29;20472;-85
2021/11/29 03:10:03;;;;;;;23.08;15.07;;;11.00;64.60;;;;;;4885508;29;20500;-85
2021/11/29 03:12:29;;;;;;;20.95;13.40;;;11.00;64.70;;;;;;4875452;29;20080;-85
2021/11/29 03:14:55;;;;;;;21.55;14.27;;;11.00;64.80;;;;;;4886163;29;20064;-86
2021/11/29 03:17:21;;;;;;;19.92;13.95;;;11.00;64.80;;;;;;4875496;29;20033;-86
2021/11/29 03:19:47;;;;;;;24.05;13.85;;;11.00;64.90;;;;;;4859758;29;20047;-86
2021/11/29 03:22:13;;;;;;;21.00;13.93;;;11.00;65.00;;;;;;4875531;29;20040;-89
2021/11/29 03:24:46;;;;;;;21.10;14.40;;;11.00;65.00;;;;;;4870762;29;20048;-88
2021/11/29 03:27:15;;;;;;;24.48;15.23;;;11.00;65.00;;;;;;4859302;29;20044;-86
2021/11/29 03:29:43;;;;;;;21.02;13.77;;;11.00;65.00;;;;;;4889588;29;20043;-87
2021/11/29 03:32:10;;;;;;;22.80;15.27;;;11.00;65.10;;;;;;4855433;29;21053;-84
2021/11/29 03:34:36;;;;;;;22.17;14.25;;;11.00;65.20;;;;;;4888150;29;20041;-84
2021/11/29 03:37:02;;;;;;;19.35;13.48;;;11.00;65.20;;;;;;4888434;29;20051;-82
2021/11/29 03:39:29;;;;;;;20.35;13.73;;;11.00;65.40;;;;;;4886677;29;20051;-84
2021/11/29 03:41:58;;;;;;;20.50;13.93;;;11.00;65.60;;;;;;4869090;29;20068;-85
2021/11/29 03:44:24;;;;;;;24.95;15.60;;;11.00;65.50;;;;;;4874436;29;20068;-86
2021/11/29 03:46:55;;;;;;;22.98;15.30;;;11.00;65.60;;;;;;4878201;29;20044;-86
2021/11/29 03:49:22;;;;;;;21.27;14.57;;;11.00;65.70;;;;;;4877946;29;20604;-83
2021/11/29 03:51:48;;;;;;;21.95;14.82;;;11.00;65.80;;;;;;4887889;29;20037;-84
2021/11/29 03:54:14;;;;;;;24.30;14.82;;;11.00;65.80;;;;;;4889719;29;20040;-84
2021/11/29 03:56:40;;;;;;;22.48;14.63;;;11.00;65.90;;;;;;4894663;29;20503;-84
2021/11/29 03:59:07;;;;;;;23.08;14.85;;;11.00;66.00;;;;;;4874368;29;20134;-84
2021/11/29 04:01:33;;;;;;;19.40;13.82;;;11.00;66.10;;;;;;4890577;29;20045;-84
2021/11/29 04:04:01;;;;;;;23.95;14.98;;;11.00;66.10;;;;;;4874679;29;20071;-83
2021/11/29 04:06:27;;;;;;;21.80;15.15;;;11.00;66.00;;;;;;4891053;29;20435;-85
2021/11/29 04:08:52;;;;;;;22.25;14.52;;;11.00;66.10;;;;;;4889510;29;20106;-84
2021/11/29 04:11:20;;;;;;;21.58;14.73;;;11.00;66.10;;;;;;4889844;29;20084;-84
2021/11/29 04:13:46;;;;;;;21.92;14.88;;;11.00;66.30;;;;;;4890347;29;20180;-85
2021/11/29 04:16:15;;;;;;;23.10;15.52;;;11.00;66.30;;;;;;4889811;29;20319;-84
2021/11/29 04:18:42;;;;;;;21.80;14.77;;;11.00;66.30;;;;;;4890362;29;20036;-85
2021/11/29 04:21:10;;;;;;;23.30;15.30;;;11.00;66.40;;;;;;4893679;29;20123;-83
2021/11/29 04:23:36;;;;;;;22.52;14.90;;;11.00;66.30;;;;;;4876941;29;20051;-82
2021/11/29 04:26:03;;;;;;;25.02;15.30;;;11.00;66.50;;;;;;4892289;29;21217;-84
2021/11/29 04:28:30;;;;;;;24.40;15.07;;;11.00;66.40;;;;;;4897164;29;20048;-83
2021/11/29 04:30:56;;;;;;;20.75;14.57;;;11.00;66.60;;;;;;4892361;29;20055;-85
2021/11/29 04:33:22;;;;;;;23.23;14.95;;;11.00;66.60;;;;;;4892381;29;20037;-84
2021/11/29 04:35:48;;;;;;;21.80;14.23;;;11.00;66.60;;;;;;4892915;29;20040;-84
2021/11/29 04:38:14;;;;;;;23.73;14.70;;;11.00;66.80;;;;;;4875445;29;20499;-85
2021/11/29 04:40:41;;;;;;;21.13;14.55;;;11.00;66.80;;;;;;4893344;29;20079;-88
2021/11/29 04:43:07;;;;;;;22.20;14.75;;;11.00;66.80;;;;;;4877259;29;20056;-86
2021/11/29 04:45:33;;;;;;;20.85;13.52;;;11.00;66.80;;;;;;4875591;29;20599;-88
2021/11/29 04:48:00;;;;;;;19.63;13.30;;;11.00;66.90;;;;;;4879464;29;20036;-87
2021/11/29 04:50:26;;;;;;;19.80;13.18;;;11.00;66.90;;;;;;4870804;29;20039;-84
2021/11/29 04:52:52;;;;;;;22.52;13.50;;;11.10;67.20;;;;;;4889496;29;20043;-84
2021/11/29 04:55:18;;;;;;;22.60;13.95;;;11.00;67.00;;;;;;4873030;29;20543;-85
2021/11/29 04:57:44;;;;;;;20.17;13.73;;;11.10;67.20;;;;;;4890432;29;20392;-85
2021/11/29 05:00:13;;;;;;;21.17;12.95;;;11.00;67.10;;;;;;4889115;29;20096;-85
2021/11/29 05:02:39;;;;;;;23.35;13.20;;;11.10;67.20;;;;;;4873246;29;20539;-86
2021/11/29 05:05:06;;;;;;;17.70;11.70;;;11.10;67.20;;;;;;4857710;29;21530;-86
2021/11/29 05:07:32;;;;;;;19.92;13.30;;;11.10;67.20;;;;;;4871250;29;20163;-86
2021/11/29 05:09:57;;;;;;;22.70;14.38;;;11.10;67.20;;;;;;4871128;29;20591;-85
2021/11/29 05:12:23;;;;;;;21.83;13.38;;;11.10;67.20;;;;;;4872843;29;20044;-85
2021/11/29 05:14:50;;;;;;;22.17;14.00;;;11.10;67.20;;;;;;4888664;29;20063;-85
2021/11/29 05:17:17;;;;;;;21.95;13.82;;;11.10;67.40;;;;;;4888638;29;20029;-85
2021/11/29 05:19:44;;;;;;;26.40;15.05;;;11.10;67.40;;;;;;4889692;29;20037;-85
2021/11/29 05:22:10;;;;;;;23.88;14.70;;;11.10;67.50;;;;;;4877774;29;20131;-85
2021/11/29 05:24:37;;;;;;;21.85;13.75;;;11.10;67.50;;;;;;4873563;29;20047;-86
2021/11/29 05:27:04;;;;;;;22.33;13.68;;;11.10;67.40;;;;;;4876188;29;20037;-87
2021/11/29 05:29:30;;;;;;;22.42;13.75;;;11.10;67.50;;;;;;4876177;29;20041;-85
2021/11/29 05:31:56;;;;;;;22.23;14.15;;;11.10;67.60;;;;;;4887707;29;20080;-88
2021/11/29 05:34:22;;;;;;;23.23;14.68;;;11.10;67.60;;;;;;4873009;29;20070;-87
2021/11/29 05:36:49;;;;;;;22.17;13.85;;;11.10;67.60;;;;;;4873041;29;20033;-87
2021/11/29 05:39:15;;;;;;;24.40;14.93;;;11.10;67.60;;;;;;4873273;29;20040;-87
2021/11/29 05:41:43;;;;;;;24.33;15.20;;;11.10;67.60;;;;;;4872964;29;20036;-87
2021/11/29 05:44:10;;;;;;;23.77;14.93;;;11.10;67.70;;;;;;4887867;29;20043;-87
2021/11/29 05:46:35;;;;;;;25.17;15.23;;;11.10;67.70;;;;;;4871215;29;20084;-87
2021/11/29 05:49:02;;;;;;;25.05;15.07;;;11.10;67.60;;;;;;4889049;29;20071;-87
2021/11/29 05:51:28;;;;;;;22.92;14.48;;;11.10;67.70;;;;;;4871998;29;20044;-84
2021/11/29 05:53:54;;;;;;;27.13;14.63;;;11.10;67.70;;;;;;4872301;29;20036;-84
2021/11/29 05:56:22;;;;;;;22.75;14.65;;;11.10;67.80;;;;;;4888996;29;20551;-84
2021/11/29 05:58:48;;;;;;;24.00;13.95;;;11.10;67.80;;;;;;4888940;29;20051;-85
2021/11/29 06:01:14;;;;;;;23.35;14.75;;;11.10;68.00;;;;;;4886804;29;20037;-86
2021/11/29 06:03:41;;;;;;;23.70;13.65;;;11.10;68.00;;;;;;4871952;29;20044;-85
2021/11/29 06:06:07;;;;;;;24.67;14.75;;;11.10;68.00;;;;;;4877646;29;20040;-88
2021/11/29 06:08:32;;;;;;;26.10;15.82;;;11.10;68.10;;;;;;4870739;29;20044;-88
2021/11/29 06:10:58;;;;;;;23.00;14.75;;;11.10;68.00;;;;;;4875566;29;20037;-89
2021/11/29 06:13:24;;;;;;;29.33;15.48;;;11.10;67.80;;;;;;4888038;29;20032;-88
2021/11/29 06:15:50;;;;;;;25.98;15.60;;;11.10;68.00;;;;;;4872306;29;20403;-90
2021/11/29 06:18:16;;;;;;;24.55;14.82;;;11.10;68.10;;;;;;4876124;29;20072;-89
2021/11/29 06:20:42;;;;;;;22.83;14.50;;;11.10;68.00;;;;;;4870614;29;20068;-91
2021/11/29 06:23:10;;;;;;;24.02;15.02;;;11.10;68.20;;;;;;4871372;29;20128;-90
2021/11/29 06:25:38;;;;;;;23.88;14.73;;;11.10;68.20;;;;;;4874508;29;20033;-93
2021/11/29 06:28:05;;;;;;;26.52;16.20;;;11.10;68.20;;;;;;4874323;29;20095;-88
2021/11/29 06:30:32;;;;;;;27.45;16.52;;;11.10;68.10;;;;;;4861022;29;20113;-86
2021/11/29 06:32:58;;;;;;;26.40;15.65;;;11.10;68.20;;;;;;4887501;29;20484;-91
2021/11/29 06:35:23;;;;;;;26.10;15.43;;;11.10;68.20;;;;;;4874032;29;20032;-90
2021/11/29 06:37:59;;;;;;;27.23;15.85;;;11.10;68.20;;;;;;4872483;29;20505;-86
2021/11/29 06:40:25;;;;;;;25.25;14.70;;;11.10;68.30;;;;;;4876690;29;20032;-89
2021/11/29 06:42:52;;;;;;;27.20;16.08;;;11.10;68.50;;;;;;4871760;29;20043;-88
2021/11/29 06:45:19;;;;;;;26.55;15.52;;;11.10;68.50;;;;;;4886641;29;20109;-89
2021/11/29 06:47:44;;;;;;;25.27;15.25;;;11.10;68.60;;;;;;4876115;29;20077;-90
2021/11/29 06:50:11;;;;;;;24.98;14.85;;;11.10;68.50;;;;;;4869182;29;20076;-87
2021/11/29 06:52:37;;;;;;;29.50;16.05;;;11.10;68.60;;;;;;4888565;29;20053;-89
2021/11/29 06:55:05;;;;;;;25.10;15.18;;;11.10;68.80;;;;;;4874133;29;20028;-89
2021/11/29 06:57:31;;;;;;;24.83;15.18;;;11.10;68.80;;;;;;4871730;29;20036;-89
2021/11/29 06:59:57;;;;;;;23.83;15.27;;;11.20;68.90;;;;;;4870039;29;20032;-90
2021/11/29 07:02:27;;;;;;;26.83;14.90;;;11.20;69.00;;;;;;4871510;29;20101;-88
2021/11/29 07:04:54;;;;;;;23.77;14.32;;;11.20;68.90;;;;;;4871515;29;20033;-89
2021/11/29 07:07:21;;;;;;;22.98;14.18;;;11.20;69.10;;;;;;4871293;29;20130;-91
2021/11/29 07:09:47;;;;;;;22.52;13.88;;;11.10;69.10;;;;;;4887477;29;21369;-88
2021/11/29 07:12:16;;;;;;;23.50;14.57;;;11.20;69.20;;;;;;4872624;29;20036;-89
2021/11/29 07:14:43;;;;;;;27.42;14.32;;;11.20;69.20;;;;;;4886526;29;20032;-87
2021/11/29 07:17:09;;;;;;;23.70;14.13;;;11.20;69.50;;;;;;4871865;29;20032;-88
2021/11/29 07:19:37;;;;;;;23.73;14.40;;;11.20;69.30;;;;;;4873524;29;20044;-88
2021/11/29 07:22:05;;;;;;;24.10;14.48;;;11.20;69.90;;;;;;4873990;29;20032;-91
2021/11/29 07:24:33;;;;;;;25.00;14.95;;;11.20;69.40;;;;;;4876138;29;20515;-92
2021/11/29 07:26:59;;;;;;;23.38;13.77;;;11.20;69.30;;;;;;4870800;29;20515;-89
2021/11/29 07:29:25;;;;;;;25.33;14.15;;;11.20;69.40;;;;;;4855847;29;20141;-88
2021/11/29 07:31:52;;;;;;;26.08;14.48;;;11.20;69.50;;;;;;4884948;29;20044;-89
2021/11/29 07:34:18;;;;;;;22.45;13.43;;;11.20;69.40;;;;;;4872466;29;20072;-89
2021/11/29 07:36:46;;;;;;;21.88;13.15;;;11.30;69.70;;;;;;4887815;29;20045;-90
2021/11/29 07:39:12;;;;;;;25.15;13.93;;;11.20;69.60;;;;;;4875499;29;20423;-87
2021/11/29 07:41:38;;;;;;;25.35;14.65;;;11.30;69.50;;;;;;4888525;29;20123;-96
2021/11/29 07:44:04;;;;;;;26.23;14.65;;;11.30;69.60;;;;;;4873776;29;20056;-93
2021/11/29 07:46:31;;;;;;;24.20;14.57;;;11.30;69.60;;;;;;4871478;29;20044;-88
2021/11/29 07:48:57;;;;;;;27.02;15.35;;;11.30;69.60;;;;;;4875832;29;20397;-91
2021/11/29 07:51:24;;;;;;;25.65;14.88;;;11.30;69.60;;;;;;4860719;29;20037;-92
2021/11/29 07:53:50;;;;;;;25.50;14.23;;;11.30;69.50;;;;;;4874266;29;20044;-93
2021/11/29 07:56:16;;;;;;;24.15;14.25;;;11.30;69.60;;;;;;4858983;29;20127;-92
2021/11/29 07:58:42;;;;;;;24.05;14.68;;;11.30;69.60;;;;;;4870685;29;20152;-92
2021/11/29 08:01:10;;;;;;;25.10;14.93;;;11.30;70.20;;;;;;4874118;29;20092;-90
2021/11/29 08:03:36;;;;;;;27.30;15.40;;;11.30;69.70;;;;;;4870225;29;20037;-91
2021/11/29 08:06:02;;;;;;;22.65;13.48;;;11.40;69.80;;;;;;4871796;29;20037;-91
2021/11/29 08:08:28;;;;;;;26.73;14.52;;;11.40;69.70;;;;;;4873558;29;20063;-89
2021/11/29 08:10:54;;;;;;;26.38;14.90;;;11.40;69.70;;;;;;4859420;29;20407;-92
2021/11/29 08:13:19;;;;;;;24.42;14.80;;;11.40;70.40;;;;;;4874008;29;20415;-90
2021/11/29 08:15:45;;;;;;;23.50;14.02;;;11.40;69.80;;;;;;4880510;29;20096;-90
2021/11/29 08:18:11;;;;;;;22.80;13.55;;;11.40;69.90;;;;;;4871678;29;20036;-91
2021/11/29 08:20:38;;;;;;;24.80;14.55;;;11.40;69.90;;;;;;4871877;29;20029;-92
2021/11/29 08:23:05;;;;;;;27.73;15.30;;;11.40;69.90;;;;;;4869983;29;20040;-93
2021/11/29 08:25:31;;;;;;;27.80;15.32;;;11.40;69.80;;;;;;4870779;29;20032;-90
2021/11/29 08:27:57;;;;;;;24.48;14.82;;;11.40;69.80;;;;;;4874327;29;20135;-92
2021/11/29 08:30:25;;;;;;;25.30;15.55;;;11.40;69.80;;;;;;4869722;29;20128;-88
2021/11/29 08:32:52;;;;;;;24.50;14.30;;;11.50;69.80;;;;;;4872393;29;20032;-88
2021/11/29 08:35:18;;;;;;;26.45;15.20;;;11.50;69.80;;;;;;4874622;29;20116;-92
2021/11/29 08:37:50;;;;;;;26.88;14.98;;;11.50;69.80;;;;;;4874696;29;20040;-91
2021/11/29 08:40:35;;;;;;;25.38;14.68;;;11.50;69.80;;;;;;4879414;29;20040;-92
2021/11/29 08:43:10;;;;;;;26.88;14.90;;;11.50;69.80;;;;;;4889065;29;20060;-91
2021/11/29 08:45:37;;;;;;;24.17;15.07;;;11.50;69.90;;;;;;4861831;29;20043;-92
2021/11/29 08:48:07;;;;;;;27.42;15.48;;;11.50;70.00;;;;;;4874400;29;20044;-90
2021/11/29 08:50:34;;;;;;;25.13;14.45;;;11.50;69.80;;;;;;4873539;29;20280;-92
2021/11/29 08:53:04;;;;;;;25.00;15.70;;;11.50;69.90;;;;;;4875372;29;20032;-91
2021/11/29 08:55:30;;;;;;;31.35;17.25;;;11.50;69.90;;;;;;4871686;29;20033;-92
2021/11/29 08:57:59;;;;;;;25.92;15.70;;;11.60;69.90;;;;;;4874519;29;20029;-93
2021/11/29 09:00:25;;;;;;;30.70;16.25;;;11.60;69.90;;;;;;4858356;29;20071;-91
2021/11/29 09:02:52;;;;;;;28.90;16.75;;;11.60;70.00;;;;;;4872251;29;20043;-90
2021/11/29 09:05:18;;;;;;;29.08;16.20;;;11.60;69.90;;;;;;4877404;29;20036;-94
2021/11/29 09:07:45;;;;;;;28.42;16.98;;;11.60;69.90;;;;;;4879611;29;20043;-91
2021/11/29 09:10:12;;;;;;;27.33;16.40;;;11.60;69.90;;;;;;4874115;29;20123;-90
2021/11/29 09:12:39;;;;;;;27.00;16.27;;;11.60;69.90;;;;;;4890501;29;20040;-92
2021/11/29 09:15:08;;;;;;;32.30;17.88;;;11.60;70.00;;;;;;4862620;29;20514;-89
2021/11/29 09:17:34;;;;;;;27.08;16.75;;;11.60;70.00;;;;;;4877572;29;20507;-91
2021/11/29 09:20:02;;;;;;;32.65;17.52;;;11.60;70.00;;;;;;4873605;29;20040;-93
2021/11/29 09:22:28;;;;;;;29.35;17.60;;;11.60;70.00;;;;;;4877630;29;21135;-90
2021/11/29 09:24:54;;;;;;;29.40;17.45;;;11.70;70.00;;;;;;4871308;29;20984;-92
2021/11/29 09:27:21;;;;;;;28.35;17.35;;;11.70;70.10;;;;;;4872481;29;20086;-91
2021/11/29 09:29:50;;;;;;;29.77;18.05;;;11.60;70.00;;;;;;4877126;29;20037;-91
2021/11/29 09:32:16;;;;;;;30.83;17.75;;;11.60;70.00;;;;;;4860777;29;20041;-92
2021/11/29 09:34:42;;;;;;;33.63;17.98;;;11.70;70.00;;;;;;4873330;29;20044;-94
2021/11/29 09:37:08;;;;;;;32.47;17.30;;;11.70;70.00;;;;;;4871764;29;20033;-92
2021/11/29 09:39:36;;;;;;;27.10;16.55;;;11.70;70.10;;;;;;4872209;29;20060;-92
2021/11/29 09:42:03;;;;;;;28.95;17.88;;;11.70;70.00;;;;;;4871641;29;20084;-93
2021/11/29 09:44:29;;;;;;;29.58;18.00;;;11.70;70.00;;;;;;4873790;29;20563;-88
2021/11/29 09:46:55;;;;;;;31.65;18.05;;;11.70;70.60;;;;;;4872816;29;20040;-89
2021/11/29 09:49:23;;;;;;;30.70;17.67;;;11.70;70.00;;;;;;4873751;29;20500;-90
2021/11/29 09:51:49;;;;;;;31.42;17.58;;;11.70;70.00;;;;;;4875972;29;20029;-92
2021/11/29 09:54:15;;;;;;;32.00;18.13;;;11.70;70.00;;;;;;4872773;29;20029;-91
2021/11/29 09:56:42;;;;;;;29.90;17.50;;;11.70;70.10;;;;;;4871043;29;20048;-87
2021/11/29 09:59:08;;;;;;;29.58;18.67;;;11.70;70.00;;;;;;4874075;29;20037;-86
2021/11/29 10:01:34;;;;;;;29.27;17.10;;;11.70;70.00;;;;;;4868006;29;20039;-92
2021/11/29 10:04:01;;;;;;;32.13;19.02;;;11.70;70.00;;;;;;4871259;29;20040;-92
2021/11/29 10:06:27;;;;;;;30.02;17.80;;;11.70;70.10;;;;;;4875394;29;21500;-89
2021/11/29 10:08:53;;;;;;;31.50;18.55;;;11.70;70.00;;;;;;4875745;29;20447;-92
2021/11/29 10:11:25;;;;;;;29.05;16.10;;;11.80;70.10;;;;;;4875629;29;20169;-92
2021/11/29 10:14:08;;;;;;;32.35;17.17;;;11.80;70.10;;;;;;4871381;29;20116;-91
2021/11/29 10:16:41;;;;;;;31.05;18.23;;;11.80;70.00;;;;;;4872583;29;20041;-94
2021/11/29 10:19:30;;;;;;;28.25;17.73;;;11.80;70.10;;;;;;4872442;29;20490;-90
2021/11/29 10:22:12;;;;;;;22.65;14.02;;;11.80;70.60;;;;;;4871027;29;20063;-90
2021/11/29 10:24:38;;;;;;;24.73;14.57;;;11.80;70.60;;;;;;4888710;29;20036;-90
2021/11/29 10:27:04;;;;;;;23.00;14.90;;;11.80;70.80;;;;;;4886537;29;20071;-90
2021/11/29 10:29:30;;;;;;;24.83;15.93;;;11.80;70.90;;;;;;4875544;29;20044;-85
2021/11/29 10:31:58;;;;;;;25.63;16.40;;;11.80;70.70;;;;;;4875476;29;20140;-89
2021/11/29 10:34:27;;;;;;;26.88;15.68;;;11.90;71.30;;;;;;4871453;29;20040;-89
2021/11/29 10:36:54;;;;;;;23.20;14.80;;;11.80;70.60;;;;;;4870889;29;20047;-89
2021/11/29 10:39:26;;;;;;;23.60;14.13;;;11.90;70.70;;;;;;4874851;29;20040;-89
2021/11/29 10:41:55;;;;;;;24.40;15.52;;;11.90;70.50;;;;;;4886457;29;20033;-91
2021/11/29 10:44:28;;;;;;;22.85;15.15;;;11.90;70.80;;;;;;4870873;29;20036;-89
2021/11/29 10:47:00;;;;;;;23.55;15.45;;;11.90;70.90;;;;;;4871331;29;20048;-90
2021/11/29 10:49:33;;;;;;;24.02;16.17;;;11.90;70.70;;;;;;4887296;29;20039;-90
2021/11/29 10:52:01;;;;;;;26.50;16.42;;;11.90;70.60;;;;;;4875113;29;20025;-90
2021/11/29 10:54:32;;;;;;;25.30;15.90;;;11.90;70.50;;;;;;4874733;29;20469;-90
2021/11/29 10:57:00;;;;;;;25.80;15.80;;;11.90;70.60;;;;;;4857000;29;20511;-90
2021/11/29 10:59:28;;;;;;;27.20;16.80;;;11.90;70.50;;;;;;4874660;29;20448;-89
2021/11/29 11:01:59;;;;;;;26.02;15.40;;;12.00;70.60;;;;;;4870814;29;20071;-91
2021/11/29 11:04:31;;;;;;;26.80;15.55;;;12.00;70.60;;;;;;4874927;29;20045;-89
2021/11/29 11:07:03;;;;;;;22.88;15.38;;;11.90;70.60;;;;;;4890348;29;20049;-90
2021/11/29 11:09:39;;;;;;;28.55;14.55;;;11.90;70.60;;;;;;4875316;29;20048;-88
2021/11/29 11:12:08;;;;;;;;;;;12.00;70.60;;;;;;4889454;29;20036;-89
2021/11/29 11:14:35;;;;;;;26.95;14.93;;;11.90;70.50;;;;;;4872191;29;19919;-87
2021/11/29 11:17:08;;;;;;;23.17;14.63;;;11.90;70.40;;;;;;4854643;29;20343;-90
2021/11/29 11:19:40;;;;;;;22.77;14.73;;;11.90;70.50;;;;;;4888378;29;20104;-88
2021/11/29 11:22:24;;;;;;;24.63;14.90;;;11.90;70.70;;;;;;4891203;29;20419;-87
2021/11/29 11:24:55;;;;;;;24.92;15.05;;;11.90;70.70;;;;;;4874856;29;20032;-89
2021/11/29 11:27:23;;;;;;;25.50;14.88;;;11.90;70.50;;;;;;4858972;29;20036;-87
2021/11/29 11:30:01;;;;;;;25.65;14.95;;;11.90;70.70;;;;;;4858951;29;20064;-87
2021/11/29 11:32:33;;;;;;;22.55;14.55;;;11.90;70.70;;;;;;4884102;29;20045;-87
2021/11/29 11:35:01;;;;;;;25.52;15.35;;;11.90;70.60;;;;;;4871769;29;20032;-89
2021/11/29 11:37:31;;;;;;;25.58;15.57;;;11.90;70.80;;;;;;4876679;29;20043;-87
2021/11/29 11:39:58;;;;;;;25.25;15.57;;;11.90;70.70;;;;;;4873506;29;20066;-87
2021/11/29 11:42:24;;;;;;;29.27;17.17;;;11.90;70.60;;;;;;4875289;29;20037;-88
2021/11/29 11:44:52;;;;;;;27.95;16.65;;;11.90;70.70;;;;;;4871549;29;20423;-89
2021/11/29 11:47:19;;;;;;;27.80;16.17;;;12.00;70.80;;;;;;4871773;29;20572;-90
2021/11/29 11:49:47;;;;;;;29.33;17.17;;;12.00;70.70;;;;;;4875499;29;20096;-88
2021/11/29 11:52:17;;;;;;;30.67;17.00;;;12.00;70.70;;;;;;4875408;29;20066;-92
2021/11/29 11:54:44;;;;;;;30.45;17.80;;;12.00;70.70;;;;;;4871478;29;20139;-90
2021/11/29 11:57:14;;;;;;;34.58;18.02;;;12.00;70.80;;;;;;4876173;29;20033;-91
2021/11/29 12:00:08;;;;;;;30.33;18.08;;;12.00;70.70;;;;;;4874793;29;20488;-93
2021/11/29 12:02:44;;;;;;;29.15;17.35;;;12.00;70.60;;;;;;4889198;29;20047;-92
2021/11/29 12:05:18;;;;;;;32.65;18.38;;;12.00;70.70;;;;;;4867761;29;20044;-90
2021/11/29 12:07:45;;;;;;;29.73;17.05;;;12.00;70.70;;;;;;4875096;29;20423;-91
2021/11/29 12:10:44;;;;;;;34.38;19.30;;;12.00;70.80;;;;;;4874177;29;20464;-89
2021/11/29 12:13:14;;;;;;;35.28;20.13;;;12.00;70.80;;;;;;4876643;29;20029;-89
2021/11/29 12:15:47;;;;;;;31.30;18.45;;;11.90;70.70;;;;;;4874899;29;20799;-91
2021/11/29 12:18:34;;;;;;;31.17;17.25;;;11.90;70.70;;;;;;4857239;29;20449;-92
2021/11/29 12:21:09;;;;;;;29.67;17.45;;;11.90;70.80;;;;;;4858368;29;20106;-92
2021/11/29 12:24:06;;;;;;;30.70;17.40;;;11.90;70.70;;;;;;4885066;29;20032;-89
2021/11/29 12:26:47;;;;;;;;;;;12.00;70.80;;;;;;4869658;29;20040;-90
2021/11/29 12:29:22;;;;;;;32.88;17.95;;;11.90;70.90;;;;;;4879345;29;19924;-91
2021/11/29 12:32:08;;;;;;;32.58;18.70;;;11.90;70.80;;;;;;4851813;29;20048;-90